Weather observations for the past three days for
Bakersfield, Meadows Field Airport
Imperial (Metric)
Date Time (pdt) Wind (mph) Vis. (mi.) Weather Sky Cond. Temperature (ºF) Relative Humidity Wind Chill (°F) Heat Index (°F) Pressure Precipitation (in)
Air Dwpt 6 hour altimeter (in) sea level (mb) 1 hr 3 hr 6 hr
Max. Min.
06 13:54 SE 7 10.00 A Few Clouds FEW110 82 48.9 32% 81 29.92 1012.6
06 12:54 NW 5 10.00 Fair CLR 75.9 50 40% 78 29.95 1013.5
06 11:54 Calm 10.00 Fair CLR 73 50 44% 29.97 1014.3
06 10:54 S 3 10.00 Fair CLR 72 50 72 64 46% 29.97 1014.4
06 09:54 SE 8 10.00 A Few Clouds FEW110 71.1 50 47% 29.96 1014.0
06 08:54 SE 3 10.00 Overcast OVC095 69.1 52 55% 29.96 1014.0
06 07:54 SE 5 10.00 Mostly Cloudy BKN085 68 52 57% 29.97 1014.4
06 06:54 Calm 10.00 Fair CLR 66 52 61% 29.95 1013.5
06 05:54 SE 3 10.00 Fair CLR 66 52 61% 29.94 1013.1
06 04:54 Calm 10.00 Fair CLR 66.9 52 73.9 66 59% 29.93 1013.0
06 03:54 W 3 10.00 Fair CLR 66.9 52 59% 29.93 1012.8
06 02:54 W 5 10.00 Fair CLR 69.1 50 51% 29.93 1012.8
06 01:54 NW 5 10.00 Fair CLR 70 50 49% 29.91 1012.3
06 00:54 N 8 10.00 Fair CLR 73 50 44% 29.91 1012.3
05 23:54 N 9 10.00 Fair CLR 73.9 51.1 45% 29.9 1011.9
05 22:54 NW 8 10.00 Fair CLR 73 48.9 89.1 73 43% 29.9 1011.9
05 21:54 E 5 10.00 Fair CLR 80.1 48.9 34% 79 29.89 1011.6
05 20:54 Calm 10.00 Fair CLR 75 46.9 37% 77 29.88 1011.2
05 19:54 NW 3 10.00 Fair CLR 79 51.1 38% 79 29.86 1010.5
05 18:54 NW 8 10.00 Fair CLR 84.9 50 30% 83 29.85 1010.2
05 17:54 W 12 10.00 Fair CLR 88 48.9 26% 85 29.85 1010.3
05 16:54 NW 13 10.00 Fair CLR 89.1 48.9 90 75 25% 86 29.85 1010.1
05 15:54 NW 13 10.00 Fair CLR 89.1 50 26% 86 29.86 1010.5
05 14:54 W 13 10.00 Fair CLR 87.1 52 30% 85 29.88 1011.0
05 13:54 W 7 10.00 Fair CLR 84.9 48.9 29% 83 29.9 1011.9
05 10:54 S 5 10.00 Fair CLR 75 46 75 60.1 36% 77 29.97 1014.1
05 09:54 SE 7 10.00 Fair CLR 72 46.9 41% 29.97 1014.4
05 08:54 S 6 10.00 Fair CLR 70 48 46% 29.97 1014.4
05 07:54 SE 5 10.00 Fair CLR 66.9 48 51% 29.97 1014.3
05 06:54 Calm 10.00 Fair CLR 63 48 58% 29.95 1013.6
05 05:54 NW 3 10.00 Fair CLR 62.1 48.9 62% 29.94 1013.2
05 04:54 NW 3 10.00 Fair CLR 63 50 78.1 62.1 63% 29.93 1013.0
05 03:54 N 6 10.00 Fair CLR 64.9 52 63% 29.93 1012.9
05 02:54 NW 7 10.00 Fair CLR 64.9 53.1 66% 29.92 1012.6
05 01:54 NW 8 10.00 Mostly Cloudy BKN070 68 55 63% 29.92 1012.6
05 00:54 NW 6 10.00 Fair CLR 69.1 55.9 63% 29.91 1012.4
04 23:54 N 3 10.00 Mostly Cloudy BKN070 77 54 45% 78 29.89 1011.7
04 22:54 N 8 10.00 Mostly Cloudy BKN075 78.1 54 84 75 43% 79 29.89 1011.7
04 21:54 N 6 10.00 Overcast OVC070 77 55 47% 78 29.89 1011.7
04 20:54 N 8 10.00 Fair CLR 75.9 54 47% 78 29.88 1011.1
04 19:54 NW 6 10.00 Fair CLR 77 55 47% 78 29.85 1010.4
04 18:54 NW 9 10.00 Fair CLR 81 54 39% 81 29.85 1010.4
04 17:54 W 9 10.00 Fair CLR 84 54 36% 83 29.85 1010.4
04 16:54 NW 8 10.00 Fair CLR 84 54 84 71.1 36% 83 29.86 1010.6
04 15:54 NW 9 10.00 Fair CLR 82.9 55 38% 82 29.86 1010.7
04 14:54 W 13 G 20 10.00 Fair CLR 82.9 55.9 40% 82 29.88 1011.2
04 13:54 NW 12 G 20 10.00 Fair CLR 82 57 43% 82 29.9 1011.7
04 12:54 W 8 10.00 Fair CLR 78.1 57 48% 79 29.91 1012.4
04 11:54 NW 7 10.00 Fair CLR 75.9 55.9 50% 78 29.94 1013.1
04 10:54 Vrbl 5 10.00 Fair CLR 71.1 55.9 71.1 62.1 59% 29.96 1013.9
04 09:54 Calm 10.00 Partly Cloudy SCT026 69.1 55.9 63% 29.95 1013.6
04 08:54 NW 3 10.00 Overcast OVC022 66.9 55 66% 29.94 1013.5
04 07:54 Calm 10.00 Fair CLR 66 53.1 63% 29.94 1013.2
04 06:54 Calm 10.00 Fair CLR 63 51.1 65% 29.92 1012.7
04 05:54 NE 3 10.00 Fair CLR 64 51.1 63% 29.9 1012.1
04 04:54 Calm 10.00 Fair CLR 64 50 73.9 62.1 60% 29.9 1011.8
04 03:54 NW 5 10.00 Fair CLR 62.1 48 60% 29.88 1011.3
04 02:54 NW 6 10.00 Fair CLR 64.9 46 51% 29.87 1010.9
04 01:54 N 6 10.00 Fair CLR 69.1 45 42% 29.86 1010.8
04 00:54 N 8 10.00 Fair CLR 70 45 41% 29.86 1010.4
03 23:54 N 8 10.00 Fair CLR 72 46 40% 29.84 1010.0
03 22:54 N 5 10.00 Fair CLR 73.9 48 86 73.9 40% 29.82 1009.4
03 21:54 N 5 10.00 Fair CLR 75.9 46.9 36% 78 29.83 1009.5
03 20:54 NE 5 10.00 Fair CLR 77 46.9 35% 78 29.82 1009.1
03 19:54 NW 5 10.00 Fair CLR 79 48.9 35% 79 29.81 1008.8
03 18:54 NW 7 10.00 Fair CLR 82 48 31% 81 29.82 1009.1
03 17:54 W 9 10.00 Fair CLR 84.9 46.9 27% 82 29.82 1009.2
03 16:54 W 6 10.00 Fair CLR 84.9 46.9 86 71.1 27% 82 29.83 1009.6
03 15:54 Vrbl 5 10.00 Fair CLR 84 50 31% 82 29.85 1010.4
03 14:54 W 7 10.00 Fair CLR 82 51.1 34% 81 29.88 1011.3
Date Time (pdt) Wind (mph) Vis. (mi.) Weather Sky Cond. Air Dwpt Max. Min. Relative Humidity Wind Chill (°F) Heat Index (°F) altimeter (in) sea level (mb) 1 hr 3 hr 6 hr
6 hour
Temperature (ºF) Pressure Precipitation (in)